Time;durP1;ratioP1;P1;durP2;ratioP2;P2;SDS_P1;SDS_P2;PMS_P1;PMS_P2;Temp;Humidity;BMP_temperature;BMP_pressure;BME280_temperature;BME280_humidity;BME280_pressure;Samples;Min_cycle;Max_cycle;Signal;HPM_P1;HPM_P2
2022/04/19 00:00:16;;;;;;;3.08;1.30;;;;;;;;;;5075988;28;20109;-49
2022/04/19 00:02:42;;;;;;;2.25;1.35;;;;;;;;;;5069458;28;20060;-52
2022/04/19 00:05:09;;;;;;;3.28;1.50;;;;;;;;;;5069079;28;20036;-54
2022/04/19 00:07:35;;;;;;;1.75;1.15;;;;;;;;;;5081124;28;20028;-54
2022/04/19 00:10:01;;;;;;;2.55;1.42;;;;;;;;;;5056275;28;20479;-53
2022/04/19 00:12:27;;;;;;;4.15;1.50;;;;;;;;;;5062786;28;20547;-53
2022/04/19 00:14:53;;;;;;;2.38;1.38;;;;;;;;;;5068962;28;20111;-54
2022/04/19 00:17:19;;;;;;;2.30;1.42;;;;;;;;;;5074082;28;20044;-54
2022/04/19 00:19:45;;;;;;;2.60;1.40;;;;;;;;;;5074456;28;20086;-53
2022/04/19 00:22:12;;;;;;;5.07;1.63;;;;;;;;;;5078989;28;20107;-55
2022/04/19 00:24:38;;;;;;;3.40;1.67;;;;;;;;;;5084845;28;20108;-54
2022/04/19 00:27:04;;;;;;;2.35;1.60;;;;;;;;;;5068911;28;20025;-54
2022/04/19 00:29:30;;;;;;;2.47;1.75;;;;;;;;;;5072448;28;20020;-53
2022/04/19 00:31:56;;;;;;;2.67;1.42;;;;;;;;;;5068919;28;20025;-55
2022/04/19 00:34:22;;;;;;;5.53;1.60;;;;;;;;;;5085299;28;20404;-53
2022/04/19 00:36:48;;;;;;;2.80;1.60;;;;;;;;;;5068845;28;20041;-53
2022/04/19 00:39:14;;;;;;;2.55;1.55;;;;;;;;;;5089970;28;20115;-48
2022/04/19 00:41:40;;;;;;;5.43;2.30;;;;;;;;;;5084759;28;20394;-50
2022/04/19 00:44:07;;;;;;;3.95;1.50;;;;;;;;;;5075498;28;20028;-50
2022/04/19 00:46:34;;;;;;;2.38;1.52;;;;;;;;;;5073413;28;20554;-51
2022/04/19 00:49:00;;;;;;;2.30;1.33;;;;;;;;;;5059654;28;20037;-50
2022/04/19 00:51:27;;;;;;;3.28;1.50;;;;;;;;;;5081610;28;20388;-52
2022/04/19 00:53:53;;;;;;;3.45;1.48;;;;;;;;;;5072351;28;20059;-53
2022/04/19 00:56:19;;;;;;;2.65;1.58;;;;;;;;;;5082257;28;20108;-51
2022/04/19 00:58:45;;;;;;;2.42;1.40;;;;;;;;;;5084170;28;20120;-53
2022/04/19 01:01:11;;;;;;;4.45;1.67;;;;;;;;;;5089611;28;20042;-54
2022/04/19 01:03:37;;;;;;;3.15;1.83;;;;;;;;;;5075876;28;20434;-54
2022/04/19 01:06:04;;;;;;;2.63;1.92;;;;;;;;;;5081006;28;20099;-54
2022/04/19 01:08:30;;;;;;;2.22;1.45;;;;;;;;;;5065527;28;20032;-54
2022/04/19 01:13:41;;;;;;;2.65;1.77;;;;;;;;;;5080835;28;20134;-53
2022/04/19 01:16:08;;;;;;;2.67;1.88;;;;;;;;;;5069402;28;20074;-54
2022/04/19 01:18:35;;;;;;;3.40;1.73;;;;;;;;;;5076783;28;20053;-55
2022/04/19 01:21:01;;;;;;;7.07;2.20;;;;;;;;;;5075605;28;20115;-55
2022/04/19 01:23:28;;;;;;;3.60;1.80;;;;;;;;;;5065224;28;20021;-54
2022/04/19 01:25:54;;;;;;;3.28;1.70;;;;;;;;;;5076996;28;20506;-50
2022/04/19 01:28:21;;;;;;;2.45;1.63;;;;;;;;;;5083920;28;20467;-53
2022/04/19 01:30:52;;;;;;;2.45;1.70;;;;;;;;;;5075271;28;20028;-51
2022/04/19 01:33:18;;;;;;;3.10;1.65;;;;;;;;;;5062341;28;20484;-52
2022/04/19 01:35:44;;;;;;;3.08;1.63;;;;;;;;;;5064165;28;20115;-51
2022/04/19 01:38:10;;;;;;;2.00;1.60;;;;;;;;;;5072801;28;20024;-53
2022/04/19 01:40:36;;;;;;;2.55;1.65;;;;;;;;;;5068971;28;20028;-53
2022/04/19 01:43:03;;;;;;;2.85;1.60;;;;;;;;;;5073887;28;20045;-51
2022/04/19 01:45:30;;;;;;;3.13;1.75;;;;;;;;;;5072351;28;20027;-51
2022/04/19 01:47:57;;;;;;;2.97;1.70;;;;;;;;;;5075713;28;20043;-53
2022/04/19 01:50:24;;;;;;;2.63;1.63;;;;;;;;;;5060741;28;20032;-52
2022/04/19 01:52:51;;;;;;;4.07;1.48;;;;;;;;;;5061102;28;20032;-51
2022/04/19 01:55:18;;;;;;;4.30;2.00;;;;;;;;;;5063808;28;20038;-51
2022/04/19 01:57:45;;;;;;;4.80;1.65;;;;;;;;;;5079921;28;20055;-52
2022/04/19 02:00:12;;;;;;;3.83;1.85;;;;;;;;;;5065270;28;20466;-54
2022/04/19 02:02:38;;;;;;;4.07;1.83;;;;;;;;;;5069836;28;20087;-49
2022/04/19 02:05:05;;;;;;;4.88;1.90;;;;;;;;;;5081911;28;20457;-53
2022/04/19 02:07:32;;;;;;;4.15;1.90;;;;;;;;;;5072704;28;20032;-49
2022/04/19 02:09:58;;;;;;;2.97;1.85;;;;;;;;;;5055838;28;20021;-50
2022/04/19 02:12:24;;;;;;;2.90;1.80;;;;;;;;;;5069634;28;20080;-50
2022/04/19 02:14:50;;;;;;;2.97;1.67;;;;;;;;;;5069306;28;20032;-48
2022/04/19 02:17:19;;;;;;;3.00;1.67;;;;;;;;;;5078960;28;20518;-53
2022/04/19 02:19:46;;;;;;;3.15;1.70;;;;;;;;;;5065638;28;20035;-51
2022/04/19 02:22:12;;;;;;;4.13;1.80;;;;;;;;;;5077950;28;20069;-52
2022/04/19 02:24:38;;;;;;;4.13;2.17;;;;;;;;;;5071299;28;20028;-53
2022/04/19 02:27:05;;;;;;;2.22;1.60;;;;;;;;;;5074848;28;20032;-52
2022/04/19 02:29:31;;;;;;;2.60;1.65;;;;;;;;;;5069164;28;20479;-52
2022/04/19 02:31:57;;;;;;;4.80;1.77;;;;;;;;;;5084795;28;20376;-51
2022/04/19 02:34:23;;;;;;;3.05;1.63;;;;;;;;;;5068681;28;20110;-50
2022/04/19 02:36:49;;;;;;;2.53;1.60;;;;;;;;;;5068255;28;20036;-51
2022/04/19 02:39:16;;;;;;;3.13;1.60;;;;;;;;;;5079968;28;20365;-52
2022/04/19 02:41:41;;;;;;;2.72;1.65;;;;;;;;;;5053847;28;20519;-50
2022/04/19 02:44:08;;;;;;;2.95;1.73;;;;;;;;;;5079080;28;20028;-50
2022/04/19 02:46:35;;;;;;;3.85;1.98;;;;;;;;;;5073557;28;20031;-53
2022/04/19 02:49:03;;;;;;;3.92;1.80;;;;;;;;;;5076505;28;20028;-52
2022/04/19 02:51:29;;;;;;;3.30;1.83;;;;;;;;;;5070286;28;20075;-52
2022/04/19 02:53:54;;;;;;;3.15;1.60;;;;;;;;;;5076241;28;20060;-52
2022/04/19 02:56:20;;;;;;;2.65;1.63;;;;;;;;;;5069141;28;20110;-51
2022/04/19 02:58:46;;;;;;;4.70;2.03;;;;;;;;;;5071576;28;20404;-51
2022/04/19 03:01:13;;;;;;;6.00;2.30;;;;;;;;;;5078571;28;20078;-54
2022/04/19 03:03:39;;;;;;;2.65;1.58;;;;;;;;;;5076932;28;20043;-54
2022/04/19 03:06:05;;;;;;;2.83;1.73;;;;;;;;;;5084039;28;20033;-52
2022/04/19 03:08:33;;;;;;;7.88;1.77;;;;;;;;;;5070061;28;20028;-52
2022/04/19 03:10:59;;;;;;;3.53;1.95;;;;;;;;;;5075866;28;20086;-54
2022/04/19 03:13:27;;;;;;;4.22;1.80;;;;;;;;;;5073441;28;20064;-51
2022/04/19 03:15:53;;;;;;;4.05;1.85;;;;;;;;;;5071498;28;20037;-51
2022/04/19 03:18:19;;;;;;;4.20;1.92;;;;;;;;;;5079549;28;20468;-52
2022/04/19 03:20:46;;;;;;;4.28;2.25;;;;;;;;;;5070517;28;20441;-51
2022/04/19 03:28:42;;;;;;;2.60;1.92;;;;;;;;;;5082476;28;20042;-51
2022/04/19 03:31:08;;;;;;;5.93;2.10;;;;;;;;;;5062176;28;20032;-55
2022/04/19 03:33:37;;;;;;;2.30;1.83;;;;;;;;;;5081605;28;20028;-54
2022/04/19 03:36:04;;;;;;;3.63;1.80;;;;;;;;;;5064087;28;20040;-53
2022/04/19 03:38:30;;;;;;;3.60;1.92;;;;;;;;;;5080521;28;20066;-53
2022/04/19 03:40:56;;;;;;;5.45;2.00;;;;;;;;;;5062389;28;20024;-53
2022/04/19 03:43:22;;;;;;;4.50;1.95;;;;;;;;;;5066251;28;20024;-53
2022/04/19 03:45:48;;;;;;;4.32;2.03;;;;;;;;;;5063703;28;20116;-51
2022/04/19 03:48:14;;;;;;;3.50;2.10;;;;;;;;;;5069483;28;20160;-54
2022/04/19 03:50:41;;;;;;;3.05;1.80;;;;;;;;;;5066303;28;20184;-54
2022/04/19 03:53:07;;;;;;;3.50;1.90;;;;;;;;;;5054485;28;20037;-51
2022/04/19 03:55:33;;;;;;;5.07;2.47;;;;;;;;;;5073995;28;20032;-53
2022/04/19 03:57:59;;;;;;;3.47;2.13;;;;;;;;;;5044637;28;20076;-54
2022/04/19 04:00:25;;;;;;;3.58;1.98;;;;;;;;;;5054079;28;20115;-49
2022/04/19 04:02:51;;;;;;;3.83;2.13;;;;;;;;;;5078205;28;20035;-52
2022/04/19 04:05:17;;;;;;;4.50;2.40;;;;;;;;;;5068009;28;20047;-56
2022/04/19 04:07:43;;;;;;;2.85;1.75;;;;;;;;;;5058715;28;20036;-53
2022/04/19 04:10:09;;;;;;;4.68;2.25;;;;;;;;;;5077430;28;20047;-55
2022/04/19 04:12:35;;;;;;;3.33;1.92;;;;;;;;;;5082672;28;20039;-53
2022/04/19 04:15:02;;;;;;;5.75;2.40;;;;;;;;;;5069174;28;20472;-53
2022/04/19 04:17:28;;;;;;;4.20;2.15;;;;;;;;;;5069514;28;20129;-53
2022/04/19 04:19:54;;;;;;;5.25;2.15;;;;;;;;;;5057791;28;20029;-53
2022/04/19 04:22:20;;;;;;;6.40;2.25;;;;;;;;;;5077275;28;20063;-55
2022/04/19 04:24:46;;;;;;;7.05;2.40;;;;;;;;;;5080594;28;20031;-51
2022/04/19 04:27:12;;;;;;;3.70;2.03;;;;;;;;;;5093238;28;20024;-49
2022/04/19 04:29:38;;;;;;;3.30;2.00;;;;;;;;;;5079628;28;20032;-50
2022/04/19 04:32:05;;;;;;;5.10;2.20;;;;;;;;;;5064883;28;20476;-48
2022/04/19 04:34:31;;;;;;;4.70;2.35;;;;;;;;;;5070078;28;20036;-54
2022/04/19 04:36:57;;;;;;;6.57;2.55;;;;;;;;;;5084439;28;20036;-53
2022/04/19 04:39:23;;;;;;;4.97;2.78;;;;;;;;;;5065006;28;20033;-53
2022/04/19 04:41:49;;;;;;;3.95;2.30;;;;;;;;;;5082450;28;20064;-52
2022/04/19 04:44:14;;;;;;;3.30;2.10;;;;;;;;;;5069671;28;20467;-53
2022/04/19 04:49:39;;;;;;;5.88;2.25;;;;;;;;;;5064317;28;20059;-52
2022/04/19 04:52:05;;;;;;;5.38;2.38;;;;;;;;;;5075819;28;20028;-53
2022/04/19 04:54:31;;;;;;;6.15;2.30;;;;;;;;;;5071729;28;20539;-55
2022/04/19 04:56:57;;;;;;;7.10;2.80;;;;;;;;;;5089816;28;20119;-53
2022/04/19 04:59:23;;;;;;;3.33;1.83;;;;;;;;;;5063264;28;20388;-52
2022/04/19 05:01:49;;;;;;;3.50;1.92;;;;;;;;;;5068803;28;20036;-51
2022/04/19 05:04:15;;;;;;;5.68;2.63;;;;;;;;;;5082820;28;20024;-53
2022/04/19 05:06:41;;;;;;;4.78;1.80;;;;;;;;;;5069739;28;20556;-53
2022/04/19 05:09:07;;;;;;;4.68;2.35;;;;;;;;;;5059691;28;20120;-52
2022/04/19 05:11:33;;;;;;;5.47;2.45;;;;;;;;;;5075214;28;20020;-52
2022/04/19 05:13:59;;;;;;;5.78;2.20;;;;;;;;;;5058186;28;20048;-52
2022/04/19 05:16:25;;;;;;;3.85;2.38;;;;;;;;;;5065179;28;20391;-53
2022/04/19 05:18:51;;;;;;;6.15;2.60;;;;;;;;;;5084725;28;20044;-50
2022/04/19 05:21:17;;;;;;;3.53;1.67;;;;;;;;;;5072668;28;20100;-52
2022/04/19 05:23:43;;;;;;;5.90;1.92;;;;;;;;;;5066255;28;20021;-51
2022/04/19 05:26:09;;;;;;;5.55;2.60;;;;;;;;;;5070450;28;20032;-52
2022/04/19 05:28:35;;;;;;;3.72;2.35;;;;;;;;;;5060365;28;20047;-54
2022/04/19 05:31:01;;;;;;;4.95;2.58;;;;;;;;;;5065960;28;20101;-53
2022/04/19 05:33:27;;;;;;;2.90;2.03;;;;;;;;;;5077709;28;20032;-53
2022/04/19 05:35:53;;;;;;;3.03;1.90;;;;;;;;;;5078617;28;20082;-53
2022/04/19 05:38:19;;;;;;;4.13;2.20;;;;;;;;;;5057784;28;20055;-53
2022/04/19 05:40:45;;;;;;;3.72;2.20;;;;;;;;;;5054299;28;20028;-53
2022/04/19 05:43:10;;;;;;;5.30;2.50;;;;;;;;;;5066301;28;20041;-54
2022/04/19 05:45:38;;;;;;;3.70;2.38;;;;;;;;;;5068855;28;20036;-53
2022/04/19 05:48:05;;;;;;;5.85;2.63;;;;;;;;;;5056092;28;20151;-54
2022/04/19 05:50:31;;;;;;;4.43;2.35;;;;;;;;;;5075351;28;20028;-52
2022/04/19 05:52:57;;;;;;;5.72;2.78;;;;;;;;;;5076482;28;20028;-53
2022/04/19 05:55:23;;;;;;;4.10;2.40;;;;;;;;;;5055668;28;20036;-50
2022/04/19 05:57:49;;;;;;;4.82;2.72;;;;;;;;;;5073190;28;20567;-51
2022/04/19 06:00:15;;;;;;;4.25;2.97;;;;;;;;;;5075190;28;20034;-54
2022/04/19 06:05:26;;;;;;;5.65;2.35;;;;;;;;;;5061928;28;20155;-53
2022/04/19 06:07:54;;;;;;;9.00;2.88;;;;;;;;;;5063695;28;20029;-52
2022/04/19 06:10:22;;;;;;;4.78;2.40;;;;;;;;;;5078132;28;20111;-52
2022/04/19 06:12:48;;;;;;;4.28;2.25;;;;;;;;;;5073114;28;20027;-53
2022/04/19 06:15:14;;;;;;;5.78;2.58;;;;;;;;;;5054517;28;20464;-53
2022/04/19 06:17:40;;;;;;;6.13;2.67;;;;;;;;;;5052582;28;20033;-52
2022/04/19 06:20:07;;;;;;;7.38;2.67;;;;;;;;;;5062420;28;20040;-56
2022/04/19 06:22:33;;;;;;;5.43;2.95;;;;;;;;;;5064376;28;20040;-52
2022/04/19 06:25:01;;;;;;;4.90;2.53;;;;;;;;;;5061051;28;20029;-54
2022/04/19 06:27:27;;;;;;;5.90;2.70;;;;;;;;;;5045530;28;20480;-53
2022/04/19 06:29:53;;;;;;;5.18;2.40;;;;;;;;;;5061992;28;20055;-54
2022/04/19 06:32:19;;;;;;;4.65;2.40;;;;;;;;;;5070821;28;20046;-51
2022/04/19 06:34:45;;;;;;;4.80;2.05;;;;;;;;;;5075780;28;20036;-52
2022/04/19 06:37:11;;;;;;;5.13;2.45;;;;;;;;;;5073878;28;20115;-54
2022/04/19 06:39:37;;;;;;;7.70;2.75;;;;;;;;;;5069885;28;20039;-51
2022/04/19 06:42:04;;;;;;;4.82;2.78;;;;;;;;;;5070579;28;20383;-54
2022/04/19 06:44:30;;;;;;;5.93;2.83;;;;;;;;;;5057254;28;20044;-51
2022/04/19 06:46:55;;;;;;;5.63;2.75;;;;;;;;;;5065843;28;20024;-50
2022/04/19 06:49:21;;;;;;;5.70;3.55;;;;;;;;;;5072668;28;20071;-51
2022/04/19 06:51:49;;;;;;;9.38;3.15;;;;;;;;;;5073512;28;20403;-53
2022/04/19 06:54:15;;;;;;;6.35;3.13;;;;;;;;;;5056879;28;20032;-55
2022/04/19 06:56:42;;;;;;;5.95;2.55;;;;;;;;;;5055026;28;20029;-54
2022/04/19 06:59:08;;;;;;;8.02;2.92;;;;;;;;;;5056690;28;20033;-54
2022/04/19 07:01:35;;;;;;;8.38;3.00;;;;;;;;;;5050441;28;20025;-56
2022/04/19 07:04:01;;;;;;;5.28;2.30;;;;;;;;;;5054762;28;20025;-54
2022/04/19 07:06:27;;;;;;;4.82;2.65;;;;;;;;;;5063352;28;20142;-54
2022/04/19 07:08:53;;;;;;;5.60;2.42;;;;;;;;;;5073114;28;20116;-53
2022/04/19 07:11:19;;;;;;;4.65;2.92;;;;;;;;;;5060310;28;20483;-53
2022/04/19 07:13:45;;;;;;;4.55;2.38;;;;;;;;;;5071294;28;20028;-54
2022/04/19 07:16:11;;;;;;;6.88;3.42;;;;;;;;;;5074556;28;20107;-56
2022/04/19 07:18:37;;;;;;;5.65;3.13;;;;;;;;;;5066874;28;20029;-55
2022/04/19 07:26:40;;;;;;;5.53;2.60;;;;;;;;;;5058593;28;20040;-55
2022/04/19 07:29:07;;;;;;;;;;;;;;;;;;5071401;28;20040;-53
2022/04/19 07:31:33;;;;;;;8.27;2.47;;;;;;;;;;5046434;28;20336;-55
2022/04/19 07:33:59;;;;;;;10.00;2.85;;;;;;;;;;5059042;28;20226;-56
2022/04/19 07:36:25;;;;;;;5.15;2.42;;;;;;;;;;5068931;28;20017;-56
2022/04/19 07:38:52;;;;;;;9.23;2.95;;;;;;;;;;5084474;28;20047;-55
2022/04/19 07:41:18;;;;;;;5.32;2.80;;;;;;;;;;5085405;28;20019;-55
2022/04/19 07:43:47;;;;;;;7.20;2.90;;;;;;;;;;5073053;28;20021;-56
2022/04/19 07:46:16;;;;;;;7.07;2.50;;;;;;;;;;5079194;28;20024;-56
2022/04/19 07:48:44;;;;;;;6.65;2.72;;;;;;;;;;5065570;28;20024;-56
2022/04/19 07:51:10;;;;;;;6.43;2.90;;;;;;;;;;5061215;28;20051;-55
2022/04/19 07:53:36;;;;;;;7.25;2.60;;;;;;;;;;5052240;28;20040;-55
2022/04/19 07:56:02;;;;;;;6.13;2.60;;;;;;;;;;5070369;28;20398;-56
2022/04/19 07:58:28;;;;;;;8.18;2.95;;;;;;;;;;5059570;28;20052;-56
2022/04/19 08:00:54;;;;;;;4.38;2.38;;;;;;;;;;5058224;28;20490;-56
2022/04/19 08:03:20;;;;;;;7.65;2.60;;;;;;;;;;5056295;28;20063;-56
2022/04/19 08:05:46;;;;;;;4.32;2.40;;;;;;;;;;5047670;28;20025;-57
2022/04/19 08:08:12;;;;;;;5.07;2.53;;;;;;;;;;5048283;28;20127;-55
2022/04/19 08:10:38;;;;;;;13.20;2.50;;;;;;;;;;5045033;28;20440;-55
2022/04/19 08:13:04;;;;;;;4.82;2.45;;;;;;;;;;5060167;28;20549;-57
2022/04/19 08:15:30;;;;;;;4.72;2.13;;;;;;;;;;5040511;28;20024;-55
2022/04/19 08:17:57;;;;;;;5.28;2.15;;;;;;;;;;5056074;28;20032;-57
2022/04/19 08:20:23;;;;;;;6.57;2.35;;;;;;;;;;5060998;28;20036;-54
2022/04/19 08:22:49;;;;;;;7.68;2.28;;;;;;;;;;5062030;28;20380;-56
2022/04/19 08:25:15;;;;;;;5.65;2.30;;;;;;;;;;5049835;28;20039;-57
2022/04/19 08:27:42;;;;;;;3.33;2.15;;;;;;;;;;5065305;28;20018;-54
2022/04/19 08:30:09;;;;;;;3.03;1.80;;;;;;;;;;5063541;28;20539;-57
2022/04/19 08:32:35;;;;;;;3.25;1.60;;;;;;;;;;5046382;28;20068;-55
2022/04/19 08:35:01;;;;;;;2.70;1.67;;;;;;;;;;5064400;28;20036;-53
2022/04/19 08:37:31;;;;;;;2.28;1.30;;;;;;;;;;5064623;28;20036;-57
2022/04/19 08:39:57;;;;;;;4.10;1.70;;;;;;;;;;5052583;28;20033;-54
2022/04/19 08:42:23;;;;;;;4.20;1.55;;;;;;;;;;5037472;28;20036;-54
2022/04/19 08:44:49;;;;;;;3.38;1.60;;;;;;;;;;5051529;28;20491;-57
2022/04/19 08:47:15;;;;;;;3.50;1.58;;;;;;;;;;5055678;28;20033;-56
2022/04/19 08:49:42;;;;;;;2.88;1.50;;;;;;;;;;5066617;28;20078;-56
2022/04/19 08:52:11;;;;;;;3.53;1.70;;;;;;;;;;5076061;28;20361;-58
2022/04/19 08:57:31;;;;;;;5.05;1.40;;;;;;;;;;5076500;28;20090;-54
2022/04/19 08:59:57;;;;;;;2.17;0.98;;;;;;;;;;5060570;28;20037;-54
2022/04/19 09:02:25;;;;;;;6.80;1.35;;;;;;;;;;5063983;28;20108;-53
2022/04/19 09:04:52;;;;;;;2.90;1.20;;;;;;;;;;5062196;28;20020;-55
2022/04/19 09:07:18;;;;;;;3.72;1.10;;;;;;;;;;5069609;28;20071;-56
2022/04/19 09:09:58;;;;;;;2.15;1.00;;;;;;;;;;5057984;28;20399;-55
2022/04/19 09:12:24;;;;;;;2.20;1.20;;;;;;;;;;5065531;28;20033;-56
2022/04/19 09:15:00;;;;;;;2.33;0.70;;;;;;;;;;5090759;28;20043;-57
2022/04/19 09:17:38;;;;;;;1.65;0.85;;;;;;;;;;5073523;28;20411;-55
2022/04/19 09:20:15;;;;;;;2.28;0.80;;;;;;;;;;5055596;28;20519;-56
2022/04/19 09:22:42;;;;;;;1.80;1.00;;;;;;;;;;5087424;28;20479;-56
2022/04/19 09:25:25;;;;;;;2.92;0.95;;;;;;;;;;5077755;28;20533;-55
2022/04/19 09:27:51;;;;;;;2.53;1.27;;;;;;;;;;5091730;28;20020;-57
2022/04/19 09:30:18;;;;;;;1.63;0.75;;;;;;;;;;5091165;28;20559;-57
2022/04/19 09:33:02;;;;;;;2.90;0.77;;;;;;;;;;5084942;28;20024;-56
2022/04/19 09:35:32;;;;;;;1.40;0.70;;;;;;;;;;5079848;28;20028;-54
2022/04/19 09:37:58;;;;;;;1.40;0.77;;;;;;;;;;5076118;28;20515;-55
2022/04/19 09:40:32;;;;;;;2.78;1.10;;;;;;;;;;5069782;28;20032;-57
2022/04/19 09:42:58;;;;;;;;;;;;;;;;;;5079821;28;20779;-56
2022/04/19 09:45:28;;;;;;;4.47;1.30;;;;;;;;;;5073394;28;19991;-55
2022/04/19 09:47:54;;;;;;;2.00;1.08;;;;;;;;;;5081212;28;20103;-55
2022/04/19 09:50:21;;;;;;;2.17;0.70;;;;;;;;;;5072679;28;20043;-56
2022/04/19 09:52:50;;;;;;;1.90;0.88;;;;;;;;;;5086295;28;20039;-56
2022/04/19 09:55:16;;;;;;;2.38;0.93;;;;;;;;;;5091473;28;20055;-56
2022/04/19 09:57:46;;;;;;;1.60;0.68;;;;;;;;;;5069812;28;20033;-55
2022/04/19 10:00:13;;;;;;;3.20;0.80;;;;;;;;;;5070958;28;20449;-56
2022/04/19 10:08:18;;;;;;;3.08;0.70;;;;;;;;;;5078906;28;20173;-56
2022/04/19 10:10:45;;;;;;;1.92;0.60;;;;;;;;;;5058704;28;20074;-57
2022/04/19 10:13:11;;;;;;;1.75;0.75;;;;;;;;;;5086486;28;20028;-57
2022/04/19 10:15:38;;;;;;;3.10;0.60;;;;;;;;;;5083960;28;20032;-58
2022/04/19 10:18:05;;;;;;;1.23;0.60;;;;;;;;;;5079919;28;20037;-57
2022/04/19 10:20:32;;;;;;;1.15;0.50;;;;;;;;;;5076437;28;20028;-57
2022/04/19 10:23:02;;;;;;;2.05;0.60;;;;;;;;;;5075051;28;20028;-57
2022/04/19 10:25:44;;;;;;;3.08;0.85;;;;;;;;;;5085735;28;20031;-56
2022/04/19 10:28:11;;;;;;;1.20;0.50;;;;;;;;;;5087355;28;20035;-54
2022/04/19 10:30:38;;;;;;;0.93;0.50;;;;;;;;;;5055638;28;20086;-57
2022/04/19 10:33:23;;;;;;;0.85;0.55;;;;;;;;;;5079033;28;20028;-55
2022/04/19 10:36:08;;;;;;;0.55;0.40;;;;;;;;;;5090896;28;20047;-55
2022/04/19 10:38:34;;;;;;;0.60;0.40;;;;;;;;;;5056472;28;20029;-56
2022/04/19 10:41:00;;;;;;;3.35;0.80;;;;;;;;;;5078249;28;20047;-56
2022/04/19 10:43:27;;;;;;;1.30;0.50;;;;;;;;;;5089872;28;20024;-56
2022/04/19 10:45:54;;;;;;;2.22;0.63;;;;;;;;;;5086777;28;20040;-55
2022/04/19 10:48:20;;;;;;;1.08;0.60;;;;;;;;;;5071113;28;20491;-55
2022/04/19 10:50:51;;;;;;;1.23;0.57;;;;;;;;;;5066301;28;20044;-56
2022/04/19 10:53:17;;;;;;;1.70;0.68;;;;;;;;;;5074429;28;20028;-52
2022/04/19 10:55:58;;;;;;;2.75;0.82;;;;;;;;;;5051816;28;20029;-52
2022/04/19 10:58:40;;;;;;;3.47;0.70;;;;;;;;;;5079159;28;20120;-53
2022/04/19 11:01:09;;;;;;;1.80;0.77;;;;;;;;;;5080182;28;20434;-54
2022/04/19 11:03:40;;;;;;;1.30;0.55;;;;;;;;;;5090764;28;20028;-54
2022/04/19 11:06:31;;;;;;;1.25;0.50;;;;;;;;;;5061111;28;20376;-56
2022/04/19 11:09:29;;;;;;;1.08;0.82;;;;;;;;;;5073061;28;20032;-52
2022/04/19 11:12:10;;;;;;;1.00;0.50;;;;;;;;;;5016024;28;20051;-56
2022/04/19 11:14:40;;;;;;;1.08;0.52;;;;;;;;;;5052883;28;20025;-55
2022/04/19 11:17:22;;;;;;;0.55;0.28;;;;;;;;;;5061719;28;20115;-55
2022/04/19 11:19:55;;;;;;;2.05;0.65;;;;;;;;;;5056883;28;20435;-56
2022/04/19 11:22:21;;;;;;;;;;;;;;;;;;5069753;28;20520;-56
2022/04/19 11:25:00;;;;;;;2.72;0.65;;;;;;;;;;5085925;28;20053;-59
2022/04/19 11:27:45;;;;;;;1.98;0.50;;;;;;;;;;5062370;28;20020;-57
2022/04/19 11:30:13;;;;;;;1.13;0.60;;;;;;;;;;5088737;28;20025;-57
2022/04/19 11:32:39;;;;;;;0.75;0.43;;;;;;;;;;5083582;28;20034;-57
2022/04/19 11:35:05;;;;;;;3.15;0.60;;;;;;;;;;5091064;28;20032;-57
2022/04/19 11:37:32;;;;;;;0.43;0.28;;;;;;;;;;5068986;28;20036;-56
2022/04/19 11:48:30;;;;;;;2.35;0.40;;;;;;;;;;5073351;28;20043;-57
2022/04/19 11:51:10;;;;;;;0.50;0.30;;;;;;;;;;5067054;28;20046;-57
2022/04/19 11:53:36;;;;;;;2.72;0.65;;;;;;;;;;5033102;28;20025;-56
2022/04/19 11:56:02;;;;;;;3.50;0.50;;;;;;;;;;5045898;28;20025;-54
2022/04/19 11:58:28;;;;;;;0.98;0.52;;;;;;;;;;5065750;28;20491;-55
2022/04/19 12:00:58;;;;;;;1.27;0.57;;;;;;;;;;5062327;28;20025;-55
2022/04/19 12:03:28;;;;;;;3.10;0.40;;;;;;;;;;5064003;28;20505;-57
2022/04/19 12:05:55;;;;;;;3.10;0.80;;;;;;;;;;5065995;28;20024;-56
2022/04/19 12:08:34;;;;;;;1.25;0.80;;;;;;;;;;5066213;28;20545;-56
2022/04/19 12:11:04;;;;;;;4.45;1.10;;;;;;;;;;5057732;28;20032;-55
2022/04/19 12:13:30;;;;;;;1.17;0.50;;;;;;;;;;5046702;28;20091;-57
2022/04/19 12:15:56;;;;;;;2.42;0.55;;;;;;;;;;5072496;28;20096;-55
2022/04/19 12:18:32;;;;;;;1.75;0.70;;;;;;;;;;5066300;28;20035;-54
2022/04/19 12:20:58;;;;;;;1.27;0.60;;;;;;;;;;5055235;28;20083;-55
2022/04/19 12:23:24;;;;;;;3.05;0.70;;;;;;;;;;5060477;28;20029;-56
2022/04/19 12:26:02;;;;;;;1.00;0.63;;;;;;;;;;5070157;28;20031;-56
2022/04/19 12:28:42;;;;;;;2.38;0.60;;;;;;;;;;5070763;28;20025;-56
2022/04/19 12:31:08;;;;;;;3.67;0.80;;;;;;;;;;5056041;28;20012;-58
2022/04/19 12:33:34;;;;;;;2.72;0.70;;;;;;;;;;5061697;28;20086;-57
2022/04/19 12:36:00;;;;;;;1.25;0.70;;;;;;;;;;5058087;28;21035;-57
2022/04/19 12:38:34;;;;;;;1.13;0.57;;;;;;;;;;5066708;28;20398;-57
2022/04/19 12:41:00;;;;;;;1.00;0.55;;;;;;;;;;5056170;28;20558;-58
2022/04/19 12:43:46;;;;;;;1.95;0.80;;;;;;;;;;5058762;28;20518;-54
2022/04/19 12:46:15;;;;;;;2.42;0.93;;;;;;;;;;5062941;28;20024;-56
2022/04/19 12:48:52;;;;;;;1.45;0.65;;;;;;;;;;5060348;28;20079;-58
2022/04/19 12:51:23;;;;;;;2.42;0.60;;;;;;;;;;5062628;28;20488;-54
2022/04/19 12:54:00;;;;;;;2.28;0.70;;;;;;;;;;5056144;28;20024;-55
2022/04/19 12:56:26;;;;;;;1.27;0.40;;;;;;;;;;5055983;28;20059;-56
2022/04/19 12:58:52;;;;;;;1.38;0.88;;;;;;;;;;5053299;28;20401;-55
2022/04/19 13:01:18;;;;;;;2.13;0.60;;;;;;;;;;5056245;28;20442;-55
2022/04/19 13:03:44;;;;;;;1.58;0.73;;;;;;;;;;5059190;28;20392;-57
2022/04/19 13:14:24;;;;;;;1.67;0.80;;;;;;;;;;5067882;28;20067;-55
2022/04/19 13:16:50;;;;;;;1.00;0.55;;;;;;;;;;5047988;28;20056;-56
2022/04/19 13:19:16;;;;;;;2.13;0.60;;;;;;;;;;5062434;28;20163;-55
2022/04/19 13:21:42;;;;;;;1.85;1.00;;;;;;;;;;5055279;28;20469;-55
2022/04/19 13:24:08;;;;;;;1.45;0.63;;;;;;;;;;5048616;28;20405;-54
2022/04/19 13:26:34;;;;;;;1.95;0.60;;;;;;;;;;5050110;28;20060;-58
2022/04/19 13:29:01;;;;;;;1.95;0.88;;;;;;;;;;5062118;28;20033;-58
2022/04/19 13:31:27;;;;;;;2.58;1.27;;;;;;;;;;5047728;28;20021;-55
2022/04/19 13:33:53;;;;;;;2.83;1.00;;;;;;;;;;5048763;28;20043;-50
2022/04/19 13:36:19;;;;;;;3.00;0.63;;;;;;;;;;5046347;28;20028;-57
2022/04/19 13:38:45;;;;;;;2.28;0.70;;;;;;;;;;5045105;28;20428;-58
2022/04/19 13:41:11;;;;;;;1.30;0.57;;;;;;;;;;5059481;28;20081;-56
2022/04/19 13:43:37;;;;;;;1.55;0.60;;;;;;;;;;5052009;28;20024;-56
2022/04/19 13:46:03;;;;;;;0.77;0.50;;;;;;;;;;5060626;28;20545;-56
2022/04/19 13:48:30;;;;;;;1.83;0.50;;;;;;;;;;5067808;28;20027;-55
2022/04/19 13:50:56;;;;;;;1.02;0.50;;;;;;;;;;5065074;28;20487;-57
2022/04/19 13:53:22;;;;;;;2.63;0.65;;;;;;;;;;5065813;28;20020;-56
2022/04/19 13:55:48;;;;;;;1.35;0.73;;;;;;;;;;5085852;28;20514;-55
2022/04/19 13:58:15;;;;;;;1.70;0.63;;;;;;;;;;5075642;28;20919;-55
2022/04/19 14:00:41;;;;;;;1.42;0.75;;;;;;;;;;5067892;28;20028;-57
2022/04/19 14:03:07;;;;;;;3.25;0.93;;;;;;;;;;5078535;28;20368;-58
2022/04/19 14:05:33;;;;;;;1.83;0.98;;;;;;;;;;5084133;28;20391;-59
2022/04/19 14:07:59;;;;;;;1.60;0.45;;;;;;;;;;5064339;28;20391;-55
2022/04/19 14:10:25;;;;;;;1.70;0.75;;;;;;;;;;5077296;28;20020;-55
2022/04/19 14:12:52;;;;;;;1.13;0.60;;;;;;;;;;5064764;28;20037;-56
2022/04/19 14:15:18;;;;;;;1.98;0.70;;;;;;;;;;5077556;28;20039;-57
2022/04/19 14:17:44;;;;;;;1.30;0.60;;;;;;;;;;5068036;28;20082;-57
2022/04/19 14:20:10;;;;;;;1.88;0.80;;;;;;;;;;5067568;28;20439;-56
2022/04/19 14:22:37;;;;;;;2.55;0.60;;;;;;;;;;5083313;28;20510;-56
2022/04/19 14:25:03;;;;;;;2.25;0.63;;;;;;;;;;5070808;28;20016;-55
2022/04/19 14:27:29;;;;;;;0.95;0.50;;;;;;;;;;5073949;28;20058;-56
2022/04/19 14:35:24;;;;;;;3.75;0.70;;;;;;;;;;5068483;28;20032;-55
2022/04/19 14:37:50;;;;;;;2.67;0.85;;;;;;;;;;5080257;28;20035;-56
2022/04/19 14:40:16;;;;;;;1.30;0.70;;;;;;;;;;5061821;28;20040;-56
2022/04/19 14:42:44;;;;;;;0.98;0.65;;;;;;;;;;5079020;28;20032;-59
2022/04/19 14:45:12;;;;;;;1.67;0.70;;;;;;;;;;5067344;28;20511;-58
2022/04/19 14:47:38;;;;;;;3.03;0.85;;;;;;;;;;5067027;28;20029;-57
2022/04/19 14:50:05;;;;;;;1.25;0.70;;;;;;;;;;5083869;28;20056;-56
2022/04/19 14:52:31;;;;;;;1.58;0.70;;;;;;;;;;5072935;28;20032;-55
2022/04/19 14:54:56;;;;;;;1.00;0.70;;;;;;;;;;5073659;28;20047;-56
2022/04/19 14:57:24;;;;;;;1.42;0.70;;;;;;;;;;5065157;28;20028;-59
2022/04/19 14:59:50;;;;;;;12.32;3.45;;;;;;;;;;5066800;28;20040;-57
2022/04/19 15:02:16;;;;;;;2.15;0.75;;;;;;;;;;5078760;28;20037;-58
2022/04/19 15:04:43;;;;;;;3.42;0.70;;;;;;;;;;5070869;28;20024;-57
2022/04/19 15:07:09;;;;;;;1.95;0.77;;;;;;;;;;5073671;28;20036;-57
2022/04/19 15:09:35;;;;;;;1.70;0.47;;;;;;;;;;5071111;28;20020;-57
2022/04/19 15:12:02;;;;;;;0.90;0.50;;;;;;;;;;5073707;28;20043;-57
2022/04/19 15:14:28;;;;;;;1.02;0.52;;;;;;;;;;5084537;28;20421;-57
2022/04/19 15:16:55;;;;;;;1.30;0.65;;;;;;;;;;5073713;28;20042;-56
2022/04/19 15:19:21;;;;;;;1.92;0.93;;;;;;;;;;5070207;28;20025;-57
2022/04/19 15:21:47;;;;;;;0.68;0.40;;;;;;;;;;5076918;28;20081;-57
2022/04/19 15:24:13;;;;;;;3.38;0.80;;;;;;;;;;5073297;28;20452;-56
2022/04/19 15:26:39;;;;;;;3.72;0.90;;;;;;;;;;5072452;28;20071;-57
2022/04/19 15:29:05;;;;;;;0.80;0.60;;;;;;;;;;5062375;28;20067;-57
2022/04/19 15:31:31;;;;;;;4.65;1.23;;;;;;;;;;5068455;28;20078;-56
2022/04/19 15:33:57;;;;;;;2.40;0.60;;;;;;;;;;5077204;28;20020;-57